sensor_id;sensor_type;location;lat;lon;timestamp;temperature;humidity
7362;DHT22;3721;44.490;11.220;2023-02-28T00:00:25;6.80;98.20
7362;DHT22;3721;44.490;11.220;2023-02-28T00:02:51;6.80;98.20
7362;DHT22;3721;44.490;11.220;2023-02-28T00:05:20;6.80;98.40
7362;DHT22;3721;44.490;11.220;2023-02-28T00:07:46;6.80;98.30
7362;DHT22;3721;44.490;11.220;2023-02-28T00:10:14;6.80;98.40
7362;DHT22;3721;44.490;11.220;2023-02-28T00:12:41;6.80;98.20
7362;DHT22;3721;44.490;11.220;2023-02-28T00:15:09;6.80;97.90
7362;DHT22;3721;44.490;11.220;2023-02-28T00:17:34;6.70;97.80
7362;DHT22;3721;44.490;11.220;2023-02-28T00:20:00;6.60;97.90
7362;DHT22;3721;44.490;11.220;2023-02-28T00:22:37;6.50;98.00
7362;DHT22;3721;44.490;11.220;2023-02-28T00:25:03;6.50;98.00
7362;DHT22;3721;44.490;11.220;2023-02-28T00:27:29;6.50;98.20
7362;DHT22;3721;44.490;11.220;2023-02-28T00:29:55;6.60;98.40
7362;DHT22;3721;44.490;11.220;2023-02-28T00:32:20;6.60;98.40
7362;DHT22;3721;44.490;11.220;2023-02-28T00:34:46;6.70;98.40
7362;DHT22;3721;44.490;11.220;2023-02-28T00:37:11;6.70;98.20
7362;DHT22;3721;44.490;11.220;2023-02-28T00:39:37;6.70;98.40
7362;DHT22;3721;44.490;11.220;2023-02-28T00:42:04;6.80;98.40
7362;DHT22;3721;44.490;11.220;2023-02-28T00:44:30;6.80;98.50
7362;DHT22;3721;44.490;11.220;2023-02-28T00:46:56;6.80;98.30
7362;DHT22;3721;44.490;11.220;2023-02-28T00:49:23;6.60;98.30
7362;DHT22;3721;44.490;11.220;2023-02-28T00:51:49;6.90;98.40
7362;DHT22;3721;44.490;11.220;2023-02-28T00:54:15;6.90;98.30
7362;DHT22;3721;44.490;11.220;2023-02-28T00:56:40;7.00;98.40
7362;DHT22;3721;44.490;11.220;2023-02-28T00:59:06;6.90;98.30
7362;DHT22;3721;44.490;11.220;2023-02-28T01:01:32;7.00;98.30
7362;DHT22;3721;44.490;11.220;2023-02-28T01:03:58;7.00;98.40
7362;DHT22;3721;44.490;11.220;2023-02-28T01:06:23;7.00;98.20
7362;DHT22;3721;44.490;11.220;2023-02-28T01:08:50;7.00;98.10
7362;DHT22;3721;44.490;11.220;2023-02-28T01:11:17;7.00;98.10
7362;DHT22;3721;44.490;11.220;2023-02-28T01:13:44;6.90;97.80
7362;DHT22;3721;44.490;11.220;2023-02-28T01:16:11;6.80;97.70
7362;DHT22;3721;44.490;11.220;2023-02-28T01:18:37;6.70;97.60
7362;DHT22;3721;44.490;11.220;2023-02-28T01:21:07;6.70;97.50
7362;DHT22;3721;44.490;11.220;2023-02-28T01:23:34;6.60;97.70
7362;DHT22;3721;44.490;11.220;2023-02-28T01:26:11;6.70;97.90
7362;DHT22;3721;44.490;11.220;2023-02-28T01:28:38;6.80;98.00
7362;DHT22;3721;44.490;11.220;2023-02-28T01:31:04;6.80;97.90
7362;DHT22;3721;44.490;11.220;2023-02-28T01:33:31;6.90;97.90
7362;DHT22;3721;44.490;11.220;2023-02-28T01:36:09;6.90;97.90
7362;DHT22;3721;44.490;11.220;2023-02-28T01:38:34;6.90;97.70
7362;DHT22;3721;44.490;11.220;2023-02-28T01:41:04;6.90;97.60
7362;DHT22;3721;44.490;11.220;2023-02-28T01:43:32;6.90;97.60
7362;DHT22;3721;44.490;11.220;2023-02-28T01:45:59;6.90;97.80
7362;DHT22;3721;44.490;11.220;2023-02-28T01:48:29;6.90;97.60
7362;DHT22;3721;44.490;11.220;2023-02-28T01:50:59;6.90;97.60
7362;DHT22;3721;44.490;11.220;2023-02-28T01:53:36;7.00;97.80
7362;DHT22;3721;44.490;11.220;2023-02-28T01:56:05;6.90;97.50
7362;DHT22;3721;44.490;11.220;2023-02-28T01:58:32;6.90;97.40
7362;DHT22;3721;44.490;11.220;2023-02-28T02:00:58;6.80;97.30
7362;DHT22;3721;44.490;11.220;2023-02-28T02:03:24;6.80;97.30
7362;DHT22;3721;44.490;11.220;2023-02-28T02:05:50;6.80;97.40
7362;DHT22;3721;44.490;11.220;2023-02-28T02:08:26;6.80;97.50
7362;DHT22;3721;44.490;11.220;2023-02-28T02:10:59;6.80;97.30
7362;DHT22;3721;44.490;11.220;2023-02-28T02:18:54;6.70;97.10
7362;DHT22;3721;44.490;11.220;2023-02-28T02:21:54;6.70;97.20
7362;DHT22;3721;44.490;11.220;2023-02-28T02:24:53;6.70;97.20
7362;DHT22;3721;44.490;11.220;2023-02-28T02:44:07;6.60;96.90
7362;DHT22;3721;44.490;11.220;2023-02-28T02:46:42;6.60;96.70
7362;DHT22;3721;44.490;11.220;2023-02-28T02:49:15;6.60;96.80
7362;DHT22;3721;44.490;11.220;2023-02-28T02:51:43;6.60;96.60
7362;DHT22;3721;44.490;11.220;2023-02-28T02:54:23;6.60;96.80
7362;DHT22;3721;44.490;11.220;2023-02-28T02:56:55;6.70;96.80
7362;DHT22;3721;44.490;11.220;2023-02-28T02:59:24;6.70;96.70
7362;DHT22;3721;44.490;11.220;2023-02-28T03:01:54;6.70;96.70
7362;DHT22;3721;44.490;11.220;2023-02-28T03:04:22;6.80;96.90
7362;DHT22;3721;44.490;11.220;2023-02-28T03:06:51;6.80;96.80
7362;DHT22;3721;44.490;11.220;2023-02-28T03:09:23;6.80;96.70
7362;DHT22;3721;44.490;11.220;2023-02-28T03:11:53;6.80;96.70
7362;DHT22;3721;44.490;11.220;2023-02-28T03:18:08;6.80;96.70
7362;DHT22;3721;44.490;11.220;2023-02-28T03:20:56;6.80;96.70
7362;DHT22;3721;44.490;11.220;2023-02-28T03:23:52;6.80;96.60
7362;DHT22;3721;44.490;11.220;2023-02-28T03:26:23;6.80;96.40
7362;DHT22;3721;44.490;11.220;2023-02-28T03:29:15;6.80;96.50
7362;DHT22;3721;44.490;11.220;2023-02-28T03:32:04;6.80;96.40
7362;DHT22;3721;44.490;11.220;2023-02-28T03:34:36;6.80;96.30
7362;DHT22;3721;44.490;11.220;2023-02-28T03:37:11;6.80;96.30
7362;DHT22;3721;44.490;11.220;2023-02-28T03:39:42;6.80;96.20
7362;DHT22;3721;44.490;11.220;2023-02-28T03:42:13;6.80;96.20
7362;DHT22;3721;44.490;11.220;2023-02-28T03:44:43;6.80;96.20
7362;DHT22;3721;44.490;11.220;2023-02-28T03:47:12;6.80;96.10
7362;DHT22;3721;44.490;11.220;2023-02-28T03:49:49;6.80;96.10
7362;DHT22;3721;44.490;11.220;2023-02-28T03:52:22;6.80;96.00
7362;DHT22;3721;44.490;11.220;2023-02-28T03:54:51;6.80;95.90
7362;DHT22;3721;44.490;11.220;2023-02-28T03:57:20;6.80;96.00
7362;DHT22;3721;44.490;11.220;2023-02-28T03:59:52;6.80;96.00
7362;DHT22;3721;44.490;11.220;2023-02-28T04:02:21;6.80;96.00
7362;DHT22;3721;44.490;11.220;2023-02-28T04:04:47;6.80;95.90
7362;DHT22;3721;44.490;11.220;2023-02-28T04:07:14;6.80;96.00
7362;DHT22;3721;44.490;11.220;2023-02-28T04:09:41;6.80;96.10
7362;DHT22;3721;44.490;11.220;2023-02-28T04:12:06;6.80;96.10
7362;DHT22;3721;44.490;11.220;2023-02-28T04:14:32;6.80;96.10
7362;DHT22;3721;44.490;11.220;2023-02-28T04:16:58;6.80;96.10
7362;DHT22;3721;44.490;11.220;2023-02-28T04:19:24;6.80;96.00
7362;DHT22;3721;44.490;11.220;2023-02-28T04:21:51;6.80;95.90
7362;DHT22;3721;44.490;11.220;2023-02-28T04:24:21;6.90;95.80
7362;DHT22;3721;44.490;11.220;2023-02-28T04:26:49;6.80;95.80
7362;DHT22;3721;44.490;11.220;2023-02-28T04:29:21;6.80;95.80
7362;DHT22;3721;44.490;11.220;2023-02-28T04:31:47;6.80;95.90
7362;DHT22;3721;44.490;11.220;2023-02-28T04:34:13;6.80;95.90
7362;DHT22;3721;44.490;11.220;2023-02-28T04:36:38;6.80;95.70
7362;DHT22;3721;44.490;11.220;2023-02-28T04:39:04;6.80;95.80
7362;DHT22;3721;44.490;11.220;2023-02-28T04:41:30;6.80;95.80
7362;DHT22;3721;44.490;11.220;2023-02-28T04:43:55;6.80;95.90
7362;DHT22;3721;44.490;11.220;2023-02-28T04:46:22;6.80;95.80
7362;DHT22;3721;44.490;11.220;2023-02-28T04:48:48;6.80;95.80
7362;DHT22;3721;44.490;11.220;2023-02-28T04:51:16;6.80;95.70
7362;DHT22;3721;44.490;11.220;2023-02-28T04:53:42;6.80;95.70
7362;DHT22;3721;44.490;11.220;2023-02-28T04:56:12;6.80;95.90
7362;DHT22;3721;44.490;11.220;2023-02-28T04:58:38;6.80;95.90
7362;DHT22;3721;44.490;11.220;2023-02-28T05:01:16;6.80;95.90
7362;DHT22;3721;44.490;11.220;2023-02-28T05:03:42;6.80;95.70
7362;DHT22;3721;44.490;11.220;2023-02-28T05:06:09;6.80;95.70
7362;DHT22;3721;44.490;11.220;2023-02-28T05:08:35;6.80;95.80
7362;DHT22;3721;44.490;11.220;2023-02-28T05:11:02;6.80;95.90
7362;DHT22;3721;44.490;11.220;2023-02-28T05:13:28;6.80;96.00
7362;DHT22;3721;44.490;11.220;2023-02-28T05:15:54;6.80;96.00
7362;DHT22;3721;44.490;11.220;2023-02-28T05:18:20;6.90;96.10
7362;DHT22;3721;44.490;11.220;2023-02-28T05:20:46;6.80;96.00
7362;DHT22;3721;44.490;11.220;2023-02-28T05:23:31;6.80;95.90
7362;DHT22;3721;44.490;11.220;2023-02-28T05:25:57;6.80;96.00
7362;DHT22;3721;44.490;11.220;2023-02-28T05:28:23;6.80;96.10
7362;DHT22;3721;44.490;11.220;2023-02-28T05:30:50;6.80;96.20
7362;DHT22;3721;44.490;11.220;2023-02-28T05:33:15;6.80;96.00
7362;DHT22;3721;44.490;11.220;2023-02-28T05:35:41;6.80;96.20
7362;DHT22;3721;44.490;11.220;2023-02-28T05:38:10;6.80;96.20
7362;DHT22;3721;44.490;11.220;2023-02-28T05:40:38;6.80;96.20
7362;DHT22;3721;44.490;11.220;2023-02-28T05:43:04;6.80;96.30
7362;DHT22;3721;44.490;11.220;2023-02-28T05:45:30;6.70;96.20
7362;DHT22;3721;44.490;11.220;2023-02-28T05:47:56;6.70;96.00
7362;DHT22;3721;44.490;11.220;2023-02-28T05:50:21;6.70;96.20
7362;DHT22;3721;44.490;11.220;2023-02-28T05:52:51;6.80;96.30
7362;DHT22;3721;44.490;11.220;2023-02-28T05:55:16;6.80;96.50
7362;DHT22;3721;44.490;11.220;2023-02-28T05:57:42;6.80;96.40
7362;DHT22;3721;44.490;11.220;2023-02-28T06:00:08;6.80;96.30
7362;DHT22;3721;44.490;11.220;2023-02-28T06:02:34;6.70;96.40
7362;DHT22;3721;44.490;11.220;2023-02-28T06:05:13;6.70;96.50
7362;DHT22;3721;44.490;11.220;2023-02-28T06:07:38;6.70;96.60
7362;DHT22;3721;44.490;11.220;2023-02-28T06:10:04;6.70;96.70
7362;DHT22;3721;44.490;11.220;2023-02-28T06:12:30;6.70;96.80
7362;DHT22;3721;44.490;11.220;2023-02-28T06:14:56;6.70;96.90
7362;DHT22;3721;44.490;11.220;2023-02-28T06:17:21;6.70;97.00
7362;DHT22;3721;44.490;11.220;2023-02-28T06:19:47;6.70;97.10
7362;DHT22;3721;44.490;11.220;2023-02-28T06:22:13;6.70;97.00
7362;DHT22;3721;44.490;11.220;2023-02-28T06:24:39;6.70;97.30
7362;DHT22;3721;44.490;11.220;2023-02-28T06:27:05;6.70;97.50
7362;DHT22;3721;44.490;11.220;2023-02-28T06:29:34;6.60;97.60
7362;DHT22;3721;44.490;11.220;2023-02-28T06:32:00;6.60;97.70
7362;DHT22;3721;44.490;11.220;2023-02-28T06:34:26;6.60;97.90
7362;DHT22;3721;44.490;11.220;2023-02-28T06:36:52;6.60;97.90
7362;DHT22;3721;44.490;11.220;2023-02-28T06:39:18;6.60;98.20
7362;DHT22;3721;44.490;11.220;2023-02-28T06:41:44;6.60;98.10
7362;DHT22;3721;44.490;11.220;2023-02-28T06:44:21;6.60;98.30
7362;DHT22;3721;44.490;11.220;2023-02-28T06:46:47;6.60;98.40
7362;DHT22;3721;44.490;11.220;2023-02-28T06:49:13;6.70;98.60
7362;DHT22;3721;44.490;11.220;2023-02-28T06:51:41;6.60;98.40
7362;DHT22;3721;44.490;11.220;2023-02-28T06:54:09;6.60;98.40
7362;DHT22;3721;44.490;11.220;2023-02-28T06:56:35;6.60;98.50
7362;DHT22;3721;44.490;11.220;2023-02-28T06:59:01;6.60;98.60
7362;DHT22;3721;44.490;11.220;2023-02-28T07:01:26;6.60;98.70
7362;DHT22;3721;44.490;11.220;2023-02-28T07:03:54;6.60;98.80
7362;DHT22;3721;44.490;11.220;2023-02-28T07:06:20;6.60;98.80
7362;DHT22;3721;44.490;11.220;2023-02-28T07:08:48;6.60;98.90
7362;DHT22;3721;44.490;11.220;2023-02-28T07:11:14;6.70;98.80
7362;DHT22;3721;44.490;11.220;2023-02-28T07:13:39;6.70;98.70
7362;DHT22;3721;44.490;11.220;2023-02-28T07:16:07;6.80;98.70
7362;DHT22;3721;44.490;11.220;2023-02-28T07:18:34;6.80;98.70
7362;DHT22;3721;44.490;11.220;2023-02-28T07:21:08;6.80;98.80
7362;DHT22;3721;44.490;11.220;2023-02-28T07:23:34;6.90;98.80
7362;DHT22;3721;44.490;11.220;2023-02-28T07:26:00;6.90;98.80
7362;DHT22;3721;44.490;11.220;2023-02-28T07:28:26;7.00;98.60
7362;DHT22;3721;44.490;11.220;2023-02-28T07:30:52;7.00;98.50
7362;DHT22;3721;44.490;11.220;2023-02-28T07:33:17;7.00;98.60
7362;DHT22;3721;44.490;11.220;2023-02-28T07:35:43;7.00;98.90
7362;DHT22;3721;44.490;11.220;2023-02-28T07:38:09;7.10;98.90
7362;DHT22;3721;44.490;11.220;2023-02-28T07:40:35;7.10;98.70
7362;DHT22;3721;44.490;11.220;2023-02-28T07:43:02;7.10;98.80
7362;DHT22;3721;44.490;11.220;2023-02-28T07:45:28;7.10;98.90
7362;DHT22;3721;44.490;11.220;2023-02-28T07:47:55;7.10;98.80
7362;DHT22;3721;44.490;11.220;2023-02-28T07:50:21;7.10;98.90
7362;DHT22;3721;44.490;11.220;2023-02-28T07:52:47;7.10;99.10
7362;DHT22;3721;44.490;11.220;2023-02-28T07:55:13;7.10;99.00
7362;DHT22;3721;44.490;11.220;2023-02-28T07:57:40;7.20;99.20
7362;DHT22;3721;44.490;11.220;2023-02-28T08:00:07;7.20;99.20
7362;DHT22;3721;44.490;11.220;2023-02-28T08:02:34;7.20;99.20
7362;DHT22;3721;44.490;11.220;2023-02-28T08:05:00;7.30;99.20
7362;DHT22;3721;44.490;11.220;2023-02-28T08:07:26;7.30;99.10
7362;DHT22;3721;44.490;11.220;2023-02-28T08:09:52;7.30;99.00
7362;DHT22;3721;44.490;11.220;2023-02-28T08:12:17;7.30;99.00
7362;DHT22;3721;44.490;11.220;2023-02-28T08:14:43;7.30;98.90
7362;DHT22;3721;44.490;11.220;2023-02-28T08:17:09;7.30;98.90
7362;DHT22;3721;44.490;11.220;2023-02-28T08:19:35;7.30;99.00
7362;DHT22;3721;44.490;11.220;2023-02-28T08:22:01;7.30;98.90
7362;DHT22;3721;44.490;11.220;2023-02-28T08:24:27;7.30;99.00
7362;DHT22;3721;44.490;11.220;2023-02-28T08:26:52;7.30;98.80
7362;DHT22;3721;44.490;11.220;2023-02-28T08:29:18;7.40;99.00
7362;DHT22;3721;44.490;11.220;2023-02-28T08:31:44;7.40;99.00
7362;DHT22;3721;44.490;11.220;2023-02-28T08:34:12;7.40;98.70
7362;DHT22;3721;44.490;11.220;2023-02-28T08:36:38;7.40;98.60
7362;DHT22;3721;44.490;11.220;2023-02-28T08:39:05;7.40;98.60
7362;DHT22;3721;44.490;11.220;2023-02-28T08:41:31;7.50;98.90
7362;DHT22;3721;44.490;11.220;2023-02-28T08:43:56;7.50;98.70
7362;DHT22;3721;44.490;11.220;2023-02-28T08:46:23;7.60;98.80
7362;DHT22;3721;44.490;11.220;2023-02-28T08:48:52;7.60;98.70
7362;DHT22;3721;44.490;11.220;2023-02-28T08:51:18;7.70;98.80
7362;DHT22;3721;44.490;11.220;2023-02-28T08:53:54;7.70;98.80
7362;DHT22;3721;44.490;11.220;2023-02-28T08:56:21;7.80;98.70
7362;DHT22;3721;44.490;11.220;2023-02-28T08:58:48;7.90;98.80
7362;DHT22;3721;44.490;11.220;2023-02-28T09:01:23;7.90;98.70
7362;DHT22;3721;44.490;11.220;2023-02-28T09:03:50;8.00;98.80
7362;DHT22;3721;44.490;11.220;2023-02-28T09:06:18;8.00;98.40
7362;DHT22;3721;44.490;11.220;2023-02-28T09:08:44;8.00;98.10
7362;DHT22;3721;44.490;11.220;2023-02-28T09:11:10;8.00;98.00
7362;DHT22;3721;44.490;11.220;2023-02-28T09:13:36;8.00;97.90
7362;DHT22;3721;44.490;11.220;2023-02-28T09:16:04;8.00;97.80
7362;DHT22;3721;44.490;11.220;2023-02-28T09:18:30;8.00;97.60
7362;DHT22;3721;44.490;11.220;2023-02-28T09:20:56;8.00;97.80
7362;DHT22;3721;44.490;11.220;2023-02-28T09:23:22;8.10;98.20
7362;DHT22;3721;44.490;11.220;2023-02-28T09:25:53;8.20;97.90
7362;DHT22;3721;44.490;11.220;2023-02-28T09:28:20;8.30;97.60
7362;DHT22;3721;44.490;11.220;2023-02-28T09:30:48;8.30;97.50
7362;DHT22;3721;44.490;11.220;2023-02-28T09:33:15;8.30;97.40
7362;DHT22;3721;44.490;11.220;2023-02-28T09:35:41;8.40;97.60
7362;DHT22;3721;44.490;11.220;2023-02-28T10:16:13;8.40;97.00
7362;DHT22;3721;44.490;11.220;2023-02-28T10:18:47;8.60;95.90
7362;DHT22;3721;44.490;11.220;2023-02-28T10:21:25;8.60;96.00
7362;DHT22;3721;44.490;11.220;2023-02-28T10:23:59;8.70;95.90
7362;DHT22;3721;44.490;11.220;2023-02-28T10:26:28;8.80;96.00
7362;DHT22;3721;44.490;11.220;2023-02-28T10:28:55;8.90;95.90
7362;DHT22;3721;44.490;11.220;2023-02-28T10:31:21;8.90;95.50
7362;DHT22;3721;44.490;11.220;2023-02-28T10:33:47;8.80;95.40
7362;DHT22;3721;44.490;11.220;2023-02-28T10:36:19;8.80;95.40
7362;DHT22;3721;44.490;11.220;2023-02-28T10:38:46;8.70;95.30
7362;DHT22;3721;44.490;11.220;2023-02-28T10:41:14;8.70;95.50
7362;DHT22;3721;44.490;11.220;2023-02-28T10:43:41;8.70;95.40
7362;DHT22;3721;44.490;11.220;2023-02-28T10:51:08;9.00;95.40
7362;DHT22;3721;44.490;11.220;2023-02-28T10:53:51;9.00;95.30
7362;DHT22;3721;44.490;11.220;2023-02-28T10:56:23;9.00;95.10
7362;DHT22;3721;44.490;11.220;2023-02-28T11:01:44;9.00;95.30
7362;DHT22;3721;44.490;11.220;2023-02-28T11:09:46;8.90;95.20
7362;DHT22;3721;44.490;11.220;2023-02-28T11:12:25;9.00;95.10
7362;DHT22;3721;44.490;11.220;2023-02-28T11:15:04;9.10;95.10
7362;DHT22;3721;44.490;11.220;2023-02-28T11:17:32;9.20;95.10
7362;DHT22;3721;44.490;11.220;2023-02-28T11:20:06;9.20;95.30
7362;DHT22;3721;44.490;11.220;2023-02-28T11:22:36;9.30;94.90
7362;DHT22;3721;44.490;11.220;2023-02-28T11:25:09;9.30;94.80
7362;DHT22;3721;44.490;11.220;2023-02-28T11:30:38;9.30;94.50
7362;DHT22;3721;44.490;11.220;2023-02-28T11:33:31;9.30;94.40
7362;DHT22;3721;44.490;11.220;2023-02-28T11:36:13;9.30;94.50
7362;DHT22;3721;44.490;11.220;2023-02-28T11:38:40;9.40;94.40
7362;DHT22;3721;44.490;11.220;2023-02-28T11:41:19;9.30;94.00
7362;DHT22;3721;44.490;11.220;2023-02-28T11:43:58;9.30;94.10
7362;DHT22;3721;44.490;11.220;2023-02-28T11:46:49;9.30;94.10
7362;DHT22;3721;44.490;11.220;2023-02-28T11:52:34;9.30;93.50
7362;DHT22;3721;44.490;11.220;2023-02-28T12:00:44;9.40;93.80
7362;DHT22;3721;44.490;11.220;2023-02-28T12:05:53;9.70;93.60
7362;DHT22;3721;44.490;11.220;2023-02-28T12:13:42;9.40;92.70
7362;DHT22;3721;44.490;11.220;2023-02-28T12:27:25;9.40;93.30
7362;DHT22;3721;44.490;11.220;2023-02-28T12:29:54;9.50;93.10
7362;DHT22;3721;44.490;11.220;2023-02-28T12:32:27;9.70;93.20
7362;DHT22;3721;44.490;11.220;2023-02-28T23:23:43;9.70;93.30
7362;DHT22;3721;44.490;11.220;2023-02-28T23:26:09;7.50;94.60
7362;DHT22;3721;44.490;11.220;2023-02-28T23:28:34;7.50;94.40
7362;DHT22;3721;44.490;11.220;2023-02-28T23:31:00;7.50;94.50
7362;DHT22;3721;44.490;11.220;2023-02-28T23:33:29;7.50;94.60
7362;DHT22;3721;44.490;11.220;2023-02-28T23:35:55;7.60;94.50
7362;DHT22;3721;44.490;11.220;2023-02-28T23:38:20;7.60;94.60
7362;DHT22;3721;44.490;11.220;2023-02-28T23:40:58;7.60;94.40
7362;DHT22;3721;44.490;11.220;2023-02-28T23:43:23;7.60;94.30
7362;DHT22;3721;44.490;11.220;2023-02-28T23:45:58;7.60;94.50
7362;DHT22;3721;44.490;11.220;2023-02-28T23:48:42;7.70;94.30
7362;DHT22;3721;44.490;11.220;2023-02-28T23:51:11;7.70;94.10
7362;DHT22;3721;44.490;11.220;2023-02-28T23:53:41;7.70;93.90
7362;DHT22;3721;44.490;11.220;2023-02-28T23:56:10;7.70;93.80
7362;DHT22;3721;44.490;11.220;2023-02-28T23:58:36;7.50;93.60
